sensor_id;sensor_type;location;lat;lon;timestamp;pressure;altitude;pressure_sealevel;temperature;humidity
13869;BME280;7004;48.206;16.402;2023-04-27T00:01:49;100024.56;;;8.93;55.38
13869;BME280;7004;48.206;16.402;2023-04-27T00:04:15;100022.53;;;8.99;55.50
13869;BME280;7004;48.206;16.402;2023-04-27T00:06:42;100020.50;;;9.21;55.26
13869;BME280;7004;48.206;16.402;2023-04-27T00:09:08;100017.84;;;9.21;55.32
13869;BME280;7004;48.206;16.402;2023-04-27T00:11:34;100021.09;;;9.26;54.99
13869;BME280;7004;48.206;16.402;2023-04-27T00:14:00;100015.34;;;9.18;54.93
13869;BME280;7004;48.206;16.402;2023-04-27T00:16:26;100020.28;;;9.08;55.34
13869;BME280;7004;48.206;16.402;2023-04-27T00:18:53;100016.63;;;9.11;55.27
13869;BME280;7004;48.206;16.402;2023-04-27T00:21:19;100011.88;;;9.17;54.56
13869;BME280;7004;48.206;16.402;2023-04-27T00:23:45;100011.44;;;9.09;55.20
13869;BME280;7004;48.206;16.402;2023-04-27T00:26:11;100007.94;;;9.09;55.18
13869;BME280;7004;48.206;16.402;2023-04-27T00:28:37;100006.94;;;9.11;54.35
13869;BME280;7004;48.206;16.402;2023-04-27T00:31:04;100016.63;;;9.11;53.53
13869;BME280;7004;48.206;16.402;2023-04-27T00:33:30;100007.34;;;8.86;53.78
13869;BME280;7004;48.206;16.402;2023-04-27T00:36:00;100003.25;;;8.81;53.73
13869;BME280;7004;48.206;16.402;2023-04-27T00:38:28;100012.81;;;9.16;52.61
13869;BME280;7004;48.206;16.402;2023-04-27T00:41:05;100009.84;;;9.23;51.95
13869;BME280;7004;48.206;16.402;2023-04-27T00:43:32;100002.91;;;9.37;51.53
13869;BME280;7004;48.206;16.402;2023-04-27T00:46:05;100000.03;;;9.58;51.95
13869;BME280;7004;48.206;16.402;2023-04-27T00:48:32;100006.31;;;9.39;52.18
13869;BME280;7004;48.206;16.402;2023-04-27T00:50:58;100002.06;;;9.37;52.96
13869;BME280;7004;48.206;16.402;2023-04-27T00:53:24;99995.44;;;9.12;53.72
13869;BME280;7004;48.206;16.402;2023-04-27T00:55:50;99994.13;;;9.21;53.83
13869;BME280;7004;48.206;16.402;2023-04-27T00:58:17;99997.50;;;8.90;54.61
13869;BME280;7004;48.206;16.402;2023-04-27T01:00:43;99996.94;;;9.01;53.76
13869;BME280;7004;48.206;16.402;2023-04-27T01:03:09;99996.59;;;9.24;53.62
13869;BME280;7004;48.206;16.402;2023-04-27T01:05:36;99995.38;;;9.14;54.21
13869;BME280;7004;48.206;16.402;2023-04-27T01:08:03;99997.06;;;8.47;55.39
13869;BME280;7004;48.206;16.402;2023-04-27T01:10:29;100000.09;;;8.57;55.27
13869;BME280;7004;48.206;16.402;2023-04-27T01:12:55;99999.38;;;8.88;53.41
13869;BME280;7004;48.206;16.402;2023-04-27T01:15:22;100000.56;;;8.82;53.47
13869;BME280;7004;48.206;16.402;2023-04-27T01:17:48;99999.16;;;8.75;53.75
13869;BME280;7004;48.206;16.402;2023-04-27T01:20:21;100005.72;;;8.84;53.98
13869;BME280;7004;48.206;16.402;2023-04-27T01:22:48;99999.81;;;8.96;54.02
13869;BME280;7004;48.206;16.402;2023-04-27T01:25:14;99998.56;;;9.03;53.61
13869;BME280;7004;48.206;16.402;2023-04-27T01:27:40;99997.59;;;9.22;54.06
13869;BME280;7004;48.206;16.402;2023-04-27T01:30:06;100005.28;;;9.42;53.56
13869;BME280;7004;48.206;16.402;2023-04-27T01:32:36;100005.03;;;8.80;54.74
13869;BME280;7004;48.206;16.402;2023-04-27T01:35:02;100005.66;;;8.68;56.07
13869;BME280;7004;48.206;16.402;2023-04-27T01:37:29;100021.72;;;8.46;56.42
13869;BME280;7004;48.206;16.402;2023-04-27T01:39:55;100016.88;;;8.71;55.83
13869;BME280;7004;48.206;16.402;2023-04-27T01:42:22;100018.44;;;8.75;55.77
13869;BME280;7004;48.206;16.402;2023-04-27T01:44:48;100004.81;;;8.85;56.13
13869;BME280;7004;48.206;16.402;2023-04-27T01:47:15;100010.00;;;8.69;56.25
13869;BME280;7004;48.206;16.402;2023-04-27T01:49:43;100011.78;;;8.68;56.76
13869;BME280;7004;48.206;16.402;2023-04-27T01:52:09;100009.00;;;8.54;57.69
13869;BME280;7004;48.206;16.402;2023-04-27T01:54:35;100008.66;;;8.25;59.50
13869;BME280;7004;48.206;16.402;2023-04-27T01:57:02;100010.66;;;8.20;59.31
13869;BME280;7004;48.206;16.402;2023-04-27T01:59:28;100011.31;;;8.06;60.44
13869;BME280;7004;48.206;16.402;2023-04-27T02:01:54;100016.81;;;8.02;60.38
13869;BME280;7004;48.206;16.402;2023-04-27T02:04:21;100018.50;;;8.03;60.28
13869;BME280;7004;48.206;16.402;2023-04-27T02:06:47;100018.56;;;8.01;59.70
13869;BME280;7004;48.206;16.402;2023-04-27T02:09:13;100015.69;;;7.88;59.13
13869;BME280;7004;48.206;16.402;2023-04-27T02:11:39;100014.50;;;7.77;59.06
13869;BME280;7004;48.206;16.402;2023-04-27T02:14:05;100022.34;;;7.78;58.56
13869;BME280;7004;48.206;16.402;2023-04-27T02:16:31;100017.25;;;7.93;58.49
13869;BME280;7004;48.206;16.402;2023-04-27T02:18:58;100028.56;;;7.95;59.26
13869;BME280;7004;48.206;16.402;2023-04-27T02:21:24;100027.94;;;7.71;59.99
13869;BME280;7004;48.206;16.402;2023-04-27T02:23:50;100021.88;;;7.87;60.78
13869;BME280;7004;48.206;16.402;2023-04-27T02:26:20;100030.59;;;7.71;61.20
13869;BME280;7004;48.206;16.402;2023-04-27T02:28:47;100025.69;;;7.63;62.25
13869;BME280;7004;48.206;16.402;2023-04-27T02:31:13;100036.50;;;7.36;62.33
13869;BME280;7004;48.206;16.402;2023-04-27T02:33:40;100030.59;;;7.12;64.00
13869;BME280;7004;48.206;16.402;2023-04-27T02:36:10;100031.56;;;7.10;64.52
13869;BME280;7004;48.206;16.402;2023-04-27T02:38:36;100032.66;;;7.06;64.71
13869;BME280;7004;48.206;16.402;2023-04-27T02:41:02;100029.50;;;7.56;64.23
13869;BME280;7004;48.206;16.402;2023-04-27T02:43:28;100028.50;;;7.39;64.47
13869;BME280;7004;48.206;16.402;2023-04-27T02:45:54;100033.78;;;7.58;63.83
13869;BME280;7004;48.206;16.402;2023-04-27T02:48:20;100030.41;;;7.36;64.19
13869;BME280;7004;48.206;16.402;2023-04-27T02:50:47;100035.66;;;7.17;65.73
13869;BME280;7004;48.206;16.402;2023-04-27T02:53:13;100034.81;;;6.96;66.52
13869;BME280;7004;48.206;16.402;2023-04-27T02:55:45;100038.72;;;7.27;65.67
13869;BME280;7004;48.206;16.402;2023-04-27T02:58:15;100028.06;;;7.30;66.20
13869;BME280;7004;48.206;16.402;2023-04-27T03:00:42;100036.97;;;7.07;66.62
13869;BME280;7004;48.206;16.402;2023-04-27T03:03:08;100035.06;;;7.10;66.52
13869;BME280;7004;48.206;16.402;2023-04-27T03:05:35;100039.88;;;6.80;68.04
13869;BME280;7004;48.206;16.402;2023-04-27T03:08:01;100039.78;;;6.61;69.15
13869;BME280;7004;48.206;16.402;2023-04-27T03:10:28;100040.06;;;6.75;68.57
13869;BME280;7004;48.206;16.402;2023-04-27T03:12:54;100048.31;;;6.46;70.05
13869;BME280;7004;48.206;16.402;2023-04-27T03:15:20;100044.66;;;6.70;68.77
13869;BME280;7004;48.206;16.402;2023-04-27T03:17:47;100042.56;;;6.78;68.52
13869;BME280;7004;48.206;16.402;2023-04-27T03:20:13;100038.25;;;6.98;67.59
13869;BME280;7004;48.206;16.402;2023-04-27T03:22:40;100046.94;;;6.57;69.42
13869;BME280;7004;48.206;16.402;2023-04-27T03:25:06;100049.75;;;6.53;69.94
13869;BME280;7004;48.206;16.402;2023-04-27T03:27:33;100047.28;;;6.50;69.88
13869;BME280;7004;48.206;16.402;2023-04-27T03:29:59;100047.78;;;6.38;70.48
13869;BME280;7004;48.206;16.402;2023-04-27T03:32:25;100055.78;;;6.34;70.32
13869;BME280;7004;48.206;16.402;2023-04-27T03:34:51;100052.81;;;6.64;69.33
13869;BME280;7004;48.206;16.402;2023-04-27T03:37:18;100050.34;;;6.39;70.63
13869;BME280;7004;48.206;16.402;2023-04-27T03:39:44;100062.31;;;6.46;70.74
13869;BME280;7004;48.206;16.402;2023-04-27T03:42:10;100057.34;;;6.81;69.18
13869;BME280;7004;48.206;16.402;2023-04-27T03:44:36;100049.94;;;6.91;69.13
13869;BME280;7004;48.206;16.402;2023-04-27T03:47:02;100059.31;;;6.96;68.38
13869;BME280;7004;48.206;16.402;2023-04-27T03:49:34;100058.06;;;6.64;69.75
13869;BME280;7004;48.206;16.402;2023-04-27T03:52:01;100056.97;;;6.70;70.03
13869;BME280;7004;48.206;16.402;2023-04-27T03:54:30;100059.97;;;6.61;70.64
13869;BME280;7004;48.206;16.402;2023-04-27T03:56:56;100067.78;;;6.40;72.01
13869;BME280;7004;48.206;16.402;2023-04-27T03:59:22;100072.00;;;6.22;73.38
13869;BME280;7004;48.206;16.402;2023-04-27T04:01:48;100075.25;;;6.29;72.63
13869;BME280;7004;48.206;16.402;2023-04-27T04:04:14;100080.88;;;6.20;72.89
13869;BME280;7004;48.206;16.402;2023-04-27T04:06:40;100077.84;;;6.30;72.87
13869;BME280;7004;48.206;16.402;2023-04-27T04:09:06;100068.16;;;6.53;72.08
13869;BME280;7004;48.206;16.402;2023-04-27T04:11:33;100074.50;;;6.47;72.81
13869;BME280;7004;48.206;16.402;2023-04-27T04:13:59;100084.47;;;6.39;73.16
13869;BME280;7004;48.206;16.402;2023-04-27T04:16:25;100080.75;;;6.45;73.30
13869;BME280;7004;48.206;16.402;2023-04-27T04:18:52;100076.88;;;6.33;74.48
13869;BME280;7004;48.206;16.402;2023-04-27T04:21:18;100081.53;;;6.47;74.00
13869;BME280;7004;48.206;16.402;2023-04-27T04:23:44;100070.28;;;6.65;73.13
13869;BME280;7004;48.206;16.402;2023-04-27T04:26:10;100070.06;;;6.49;74.01
13869;BME280;7004;48.206;16.402;2023-04-27T04:28:36;100077.81;;;6.52;75.11
13869;BME280;7004;48.206;16.402;2023-04-27T04:31:03;100079.19;;;6.61;74.17
13869;BME280;7004;48.206;16.402;2023-04-27T04:33:30;100079.66;;;6.71;73.96
13869;BME280;7004;48.206;16.402;2023-04-27T04:35:56;100084.59;;;6.78;74.10
13869;BME280;7004;48.206;16.402;2023-04-27T04:38:23;100081.19;;;6.97;73.77
13869;BME280;7004;48.206;16.402;2023-04-27T04:40:49;100079.31;;;7.00;73.84
13869;BME280;7004;48.206;16.402;2023-04-27T04:43:17;100076.59;;;7.41;72.78
13869;BME280;7004;48.206;16.402;2023-04-27T04:45:43;100078.91;;;7.49;72.74
13869;BME280;7004;48.206;16.402;2023-04-27T04:48:13;100076.50;;;7.63;72.71
13869;BME280;7004;48.206;16.402;2023-04-27T04:50:41;100081.22;;;7.95;69.37
13869;BME280;7004;48.206;16.402;2023-04-27T04:53:07;100079.75;;;8.25;70.06
13869;BME280;7004;48.206;16.402;2023-04-27T04:55:33;100084.38;;;8.39;66.93
13869;BME280;7004;48.206;16.402;2023-04-27T04:57:59;100084.47;;;8.55;66.70
13869;BME280;7004;48.206;16.402;2023-04-27T05:00:26;100085.56;;;8.51;68.69
13869;BME280;7004;48.206;16.402;2023-04-27T05:02:52;100084.41;;;8.91;65.94
13869;BME280;7004;48.206;16.402;2023-04-27T05:05:18;100090.47;;;9.11;67.53
13869;BME280;7004;48.206;16.402;2023-04-27T05:07:44;100087.97;;;9.25;63.87
13869;BME280;7004;48.206;16.402;2023-04-27T05:10:11;100088.16;;;9.71;61.24
13869;BME280;7004;48.206;16.402;2023-04-27T05:12:37;100087.31;;;9.71;61.58
13869;BME280;7004;48.206;16.402;2023-04-27T05:15:05;100083.31;;;9.79;60.86
13869;BME280;7004;48.206;16.402;2023-04-27T05:17:32;100086.06;;;9.45;61.48
13869;BME280;7004;48.206;16.402;2023-04-27T05:19:58;100090.59;;;9.58;61.62
13869;BME280;7004;48.206;16.402;2023-04-27T05:22:24;100094.84;;;9.94;58.86
13869;BME280;7004;48.206;16.402;2023-04-27T05:24:50;100101.31;;;9.89;57.02
13869;BME280;7004;48.206;16.402;2023-04-27T05:27:16;100101.75;;;10.13;55.35
13869;BME280;7004;48.206;16.402;2023-04-27T05:29:43;100105.22;;;10.45;54.54
13869;BME280;7004;48.206;16.402;2023-04-27T05:32:09;100104.56;;;10.41;52.67
13869;BME280;7004;48.206;16.402;2023-04-27T05:34:35;100101.22;;;10.54;53.30
13869;BME280;7004;48.206;16.402;2023-04-27T05:37:01;100102.91;;;10.70;54.08
13869;BME280;7004;48.206;16.402;2023-04-27T05:39:28;100097.72;;;10.53;56.26
13869;BME280;7004;48.206;16.402;2023-04-27T05:41:54;100101.81;;;10.59;54.87
13869;BME280;7004;48.206;16.402;2023-04-27T05:44:20;100103.50;;;9.80;53.92
13869;BME280;7004;48.206;16.402;2023-04-27T05:46:46;100104.81;;;10.21;53.58
13869;BME280;7004;48.206;16.402;2023-04-27T05:49:12;100111.47;;;10.44;53.15
13869;BME280;7004;48.206;16.402;2023-04-27T05:51:39;100114.53;;;10.20;54.59
13869;BME280;7004;48.206;16.402;2023-04-27T05:54:07;100121.50;;;10.05;50.71
13869;BME280;7004;48.206;16.402;2023-04-27T05:56:33;100125.13;;;10.36;48.83
13869;BME280;7004;48.206;16.402;2023-04-27T05:58:59;100119.75;;;10.84;48.19
13869;BME280;7004;48.206;16.402;2023-04-27T06:01:25;100122.13;;;11.19;47.06
13869;BME280;7004;48.206;16.402;2023-04-27T06:03:52;100116.75;;;10.90;49.27
13869;BME280;7004;48.206;16.402;2023-04-27T06:06:18;100128.31;;;10.73;46.80
13869;BME280;7004;48.206;16.402;2023-04-27T06:08:44;100123.09;;;11.02;46.24
13869;BME280;7004;48.206;16.402;2023-04-27T06:11:10;100125.63;;;11.33;47.76
13869;BME280;7004;48.206;16.402;2023-04-27T06:13:36;100128.28;;;11.33;47.59
13869;BME280;7004;48.206;16.402;2023-04-27T06:16:02;100129.44;;;11.72;45.59
13869;BME280;7004;48.206;16.402;2023-04-27T06:18:29;100126.44;;;11.50;45.23
13869;BME280;7004;48.206;16.402;2023-04-27T06:20:59;100132.25;;;10.96;43.44
13869;BME280;7004;48.206;16.402;2023-04-27T06:23:26;100137.53;;;11.26;43.05
13869;BME280;7004;48.206;16.402;2023-04-27T06:25:52;100125.56;;;11.64;43.24
13869;BME280;7004;48.206;16.402;2023-04-27T06:28:19;100128.78;;;11.69;43.44
13869;BME280;7004;48.206;16.402;2023-04-27T06:30:45;100132.78;;;12.05;43.43
13869;BME280;7004;48.206;16.402;2023-04-27T06:33:11;100134.31;;;11.94;42.50
13869;BME280;7004;48.206;16.402;2023-04-27T06:35:37;100127.19;;;11.66;41.34
13869;BME280;7004;48.206;16.402;2023-04-27T06:38:03;100131.06;;;12.45;42.07
13869;BME280;7004;48.206;16.402;2023-04-27T06:40:30;100133.06;;;12.41;40.33
13869;BME280;7004;48.206;16.402;2023-04-27T06:42:58;100134.25;;;11.37;40.76
13869;BME280;7004;48.206;16.402;2023-04-27T06:45:25;100129.97;;;11.93;40.03
13869;BME280;7004;48.206;16.402;2023-04-27T06:47:51;100139.41;;;11.83;42.22
13869;BME280;7004;48.206;16.402;2023-04-27T06:50:17;100138.09;;;12.46;40.66
13869;BME280;7004;48.206;16.402;2023-04-27T06:52:43;100137.31;;;11.74;39.84
13869;BME280;7004;48.206;16.402;2023-04-27T06:55:09;100140.69;;;12.87;39.36
13869;BME280;7004;48.206;16.402;2023-04-27T06:57:35;100139.00;;;12.99;39.55
13869;BME280;7004;48.206;16.402;2023-04-27T07:00:02;100139.44;;;12.66;39.63
13869;BME280;7004;48.206;16.402;2023-04-27T07:02:29;100140.78;;;11.74;38.73
13869;BME280;7004;48.206;16.402;2023-04-27T07:04:56;100135.72;;;12.14;39.04
13869;BME280;7004;48.206;16.402;2023-04-27T07:07:22;100132.69;;;11.92;39.84
13869;BME280;7004;48.206;16.402;2023-04-27T07:09:49;100121.50;;;13.09;38.86
13869;BME280;7004;48.206;16.402;2023-04-27T07:12:15;100128.25;;;12.88;39.30
13869;BME280;7004;48.206;16.402;2023-04-27T07:14:41;100117.31;;;13.71;38.94
13869;BME280;7004;48.206;16.402;2023-04-27T07:17:08;100116.03;;;13.64;38.76
13869;BME280;7004;48.206;16.402;2023-04-27T07:19:35;100117.00;;;13.88;39.08
13869;BME280;7004;48.206;16.402;2023-04-27T07:22:02;100112.81;;;13.07;40.24
13869;BME280;7004;48.206;16.402;2023-04-27T07:24:28;100112.91;;;13.95;40.94
13869;BME280;7004;48.206;16.402;2023-04-27T07:26:54;100111.69;;;14.25;38.14
13869;BME280;7004;48.206;16.402;2023-04-27T07:29:22;100113.38;;;13.76;38.30
13869;BME280;7004;48.206;16.402;2023-04-27T07:31:49;100106.72;;;13.58;37.60
13869;BME280;7004;48.206;16.402;2023-04-27T07:34:17;100106.72;;;13.58;36.48
13869;BME280;7004;48.206;16.402;2023-04-27T07:36:44;100112.97;;;13.70;35.45
13869;BME280;7004;48.206;16.402;2023-04-27T07:39:10;100107.75;;;13.55;35.69
13869;BME280;7004;48.206;16.402;2023-04-27T07:41:37;100119.81;;;13.98;36.99
13869;BME280;7004;48.206;16.402;2023-04-27T07:44:04;100122.00;;;13.42;36.34
13869;BME280;7004;48.206;16.402;2023-04-27T07:46:30;100119.41;;;14.04;37.36
13869;BME280;7004;48.206;16.402;2023-04-27T07:48:57;100122.94;;;14.29;36.57
13869;BME280;7004;48.206;16.402;2023-04-27T07:51:24;100117.19;;;13.85;36.50
13869;BME280;7004;48.206;16.402;2023-04-27T07:53:53;100114.31;;;14.38;36.65
13869;BME280;7004;48.206;16.402;2023-04-27T07:56:20;100112.72;;;14.35;36.42
13869;BME280;7004;48.206;16.402;2023-04-27T07:58:46;100119.75;;;14.60;36.08
13869;BME280;7004;48.206;16.402;2023-04-27T08:01:12;100117.19;;;14.35;36.92
13869;BME280;7004;48.206;16.402;2023-04-27T08:03:38;100122.69;;;14.08;35.80
13869;BME280;7004;48.206;16.402;2023-04-27T08:06:05;100122.50;;;14.35;36.25
13869;BME280;7004;48.206;16.402;2023-04-27T08:08:31;100123.03;;;13.90;37.34
13869;BME280;7004;48.206;16.402;2023-04-27T08:10:57;100126.28;;;14.19;38.13
13869;BME280;7004;48.206;16.402;2023-04-27T08:13:23;100129.22;;;13.78;36.45
13869;BME280;7004;48.206;16.402;2023-04-27T08:15:49;100118.06;;;13.47;37.64
13869;BME280;7004;48.206;16.402;2023-04-27T08:18:16;100118.88;;;13.99;39.54
13869;BME280;7004;48.206;16.402;2023-04-27T08:20:43;100132.59;;;13.93;36.32
13869;BME280;7004;48.206;16.402;2023-04-27T08:23:09;100118.16;;;13.84;36.07
13869;BME280;7004;48.206;16.402;2023-04-27T08:25:35;100120.13;;;14.43;37.13
13869;BME280;7004;48.206;16.402;2023-04-27T08:28:02;100124.59;;;14.55;38.01
13869;BME280;7004;48.206;16.402;2023-04-27T08:30:28;100130.41;;;14.60;36.96
13869;BME280;7004;48.206;16.402;2023-04-27T08:32:54;100127.81;;;14.72;37.67
13869;BME280;7004;48.206;16.402;2023-04-27T08:35:20;100121.22;;;14.89;35.56
13869;BME280;7004;48.206;16.402;2023-04-27T08:37:47;100126.94;;;13.97;35.87
13869;BME280;7004;48.206;16.402;2023-04-27T08:40:13;100123.00;;;14.53;33.81
13869;BME280;7004;48.206;16.402;2023-04-27T08:42:54;100126.28;;;14.19;34.02
13869;BME280;7004;48.206;16.402;2023-04-27T08:45:22;100129.06;;;14.05;34.63
13869;BME280;7004;48.206;16.402;2023-04-27T08:47:49;100125.81;;;14.62;34.26
13869;BME280;7004;48.206;16.402;2023-04-27T08:50:15;100122.56;;;14.46;34.80
13869;BME280;7004;48.206;16.402;2023-04-27T08:52:46;100128.34;;;14.53;33.19
13869;BME280;7004;48.206;16.402;2023-04-27T08:55:13;100135.91;;;14.94;32.10
13869;BME280;7004;48.206;16.402;2023-04-27T08:57:39;100130.31;;;15.33;31.19
13869;BME280;7004;48.206;16.402;2023-04-27T09:00:06;100125.56;;;15.25;34.64
13869;BME280;7004;48.206;16.402;2023-04-27T09:02:45;100127.31;;;15.02;32.74
13869;BME280;7004;48.206;16.402;2023-04-27T09:05:20;100112.09;;;15.62;31.30
13869;BME280;7004;48.206;16.402;2023-04-27T09:08:00;100107.28;;;16.55;30.79
13869;BME280;7004;48.206;16.402;2023-04-27T09:10:27;100115.97;;;16.14;31.34
13869;BME280;7004;48.206;16.402;2023-04-27T09:12:58;100121.22;;;15.35;29.28
13869;BME280;7004;48.206;16.402;2023-04-27T09:15:27;100111.56;;;14.99;30.05
13869;BME280;7004;48.206;16.402;2023-04-27T09:17:57;100110.50;;;15.59;30.13
13869;BME280;7004;48.206;16.402;2023-04-27T09:20:24;100115.44;;;14.95;30.80
13869;BME280;7004;48.206;16.402;2023-04-27T09:22:53;100113.53;;;15.55;30.62
13869;BME280;7004;48.206;16.402;2023-04-27T09:25:27;100108.41;;;15.40;30.46
13869;BME280;7004;48.206;16.402;2023-04-27T09:27:54;100111.91;;;15.41;30.77
13869;BME280;7004;48.206;16.402;2023-04-27T09:30:21;100110.41;;;16.49;31.25
13869;BME280;7004;48.206;16.402;2023-04-27T09:32:59;100114.97;;;16.26;29.53
13869;BME280;7004;48.206;16.402;2023-04-27T09:35:31;100115.03;;;16.47;31.92
13869;BME280;7004;48.206;16.402;2023-04-27T09:37:58;100108.88;;;16.35;31.77
13869;BME280;7004;48.206;16.402;2023-04-27T09:40:27;100103.06;;;17.06;31.98
13869;BME280;7004;48.206;16.402;2023-04-27T09:42:57;100101.94;;;17.30;30.82
13869;BME280;7004;48.206;16.402;2023-04-27T09:45:24;100107.09;;;15.57;29.61
13869;BME280;7004;48.206;16.402;2023-04-27T09:47:51;100099.75;;;16.93;29.01
13869;BME280;7004;48.206;16.402;2023-04-27T09:50:18;100103.13;;;16.19;31.79
13869;BME280;7004;48.206;16.402;2023-04-27T09:52:45;100100.16;;;15.43;30.47
13869;BME280;7004;48.206;16.402;2023-04-27T09:55:24;100105.25;;;15.24;31.92
13869;BME280;7004;48.206;16.402;2023-04-27T09:58:20;100087.38;;;16.92;30.44
13869;BME280;7004;48.206;16.402;2023-04-27T10:07:01;100088.63;;;16.76;30.09
13869;BME280;7004;48.206;16.402;2023-04-27T10:09:42;100080.31;;;16.58;30.43
13869;BME280;7004;48.206;16.402;2023-04-27T10:13:19;100081.81;;;16.51;29.35
13869;BME280;7004;48.206;16.402;2023-04-27T10:15:15;100075.41;;;16.75;31.10
13869;BME280;7004;48.206;16.402;2023-04-27T10:17:50;100081.13;;;16.81;30.10
13869;BME280;7004;48.206;16.402;2023-04-27T10:20:32;100066.50;;;17.28;30.72
13869;BME280;7004;48.206;16.402;2023-04-27T10:22:59;100065.22;;;16.80;30.28
13869;BME280;7004;48.206;16.402;2023-04-27T10:25:29;100071.59;;;16.56;30.63
13869;BME280;7004;48.206;16.402;2023-04-27T10:27:58;100076.84;;;15.81;31.36
13869;BME280;7004;48.206;16.402;2023-04-27T10:30:33;100064.00;;;16.73;30.44
13869;BME280;7004;48.206;16.402;2023-04-27T10:33:05;100061.25;;;17.16;31.84
13869;BME280;7004;48.206;16.402;2023-04-27T10:35:32;100063.47;;;17.11;30.96
13869;BME280;7004;48.206;16.402;2023-04-27T10:38:10;100061.78;;;16.02;30.49
13869;BME280;7004;48.206;16.402;2023-04-27T10:40:40;100059.94;;;16.57;30.88
13869;BME280;7004;48.206;16.402;2023-04-27T10:43:15;100058.56;;;16.95;29.90
13869;BME280;7004;48.206;16.402;2023-04-27T10:45:43;100066.88;;;16.49;31.48
13869;BME280;7004;48.206;16.402;2023-04-27T10:48:13;100054.91;;;17.38;29.79
13869;BME280;7004;48.206;16.402;2023-04-27T10:50:40;100055.19;;;17.14;29.53
13869;BME280;7004;48.206;16.402;2023-04-27T10:53:07;100050.53;;;17.37;30.30
13869;BME280;7004;48.206;16.402;2023-04-27T10:55:35;100051.69;;;16.93;30.65
13869;BME280;7004;48.206;16.402;2023-04-27T10:58:02;100053.75;;;17.10;32.06
13869;BME280;7004;48.206;16.402;2023-04-27T11:00:38;100047.69;;;17.90;31.87
13869;BME280;7004;48.206;16.402;2023-04-27T11:05:59;100055.19;;;16.61;30.23
13869;BME280;7004;48.206;16.402;2023-04-27T11:08:26;100047.34;;;17.22;29.79
13869;BME280;7004;48.206;16.402;2023-04-27T11:10:52;100043.28;;;18.88;31.69
13869;BME280;7004;48.206;16.402;2023-04-27T11:13:23;100046.75;;;17.71;30.23
13869;BME280;7004;48.206;16.402;2023-04-27T11:15:53;100057.66;;;16.53;30.42
13869;BME280;7004;48.206;16.402;2023-04-27T11:18:26;100043.22;;;17.39;33.35
13869;BME280;7004;48.206;16.402;2023-04-27T11:21:08;100047.78;;;16.97;30.93
13869;BME280;7004;48.206;16.402;2023-04-27T11:23:35;100052.25;;;16.43;30.33
13869;BME280;7004;48.206;16.402;2023-04-27T11:26:20;100042.97;;;17.42;30.74
13869;BME280;7004;48.206;16.402;2023-04-27T11:29:04;100046.84;;;18.00;29.94
13869;BME280;7004;48.206;16.402;2023-04-27T11:31:48;100050.44;;;18.49;28.23
13869;BME280;7004;48.206;16.402;2023-04-27T11:34:23;100044.09;;;18.30;29.59
13869;BME280;7004;48.206;16.402;2023-04-27T11:37:25;100042.00;;;18.63;28.05
13869;BME280;7004;48.206;16.402;2023-04-27T11:39:53;100041.81;;;19.13;28.66
13869;BME280;7004;48.206;16.402;2023-04-27T11:42:29;100048.13;;;17.96;28.62
13869;BME280;7004;48.206;16.402;2023-04-27T11:45:06;100048.69;;;17.99;28.37
13869;BME280;7004;48.206;16.402;2023-04-27T11:47:35;100039.06;;;18.76;27.57
13869;BME280;7004;48.206;16.402;2023-04-27T11:50:05;100032.75;;;20.44;26.93
13869;BME280;7004;48.206;16.402;2023-04-27T11:52:37;100040.16;;;18.54;27.85
13869;BME280;7004;48.206;16.402;2023-04-27T11:55:05;100030.06;;;19.34;28.17
13869;BME280;7004;48.206;16.402;2023-04-27T11:57:35;100027.75;;;20.67;28.50
13869;BME280;7004;48.206;16.402;2023-04-27T12:00:04;100025.38;;;19.46;29.88
13869;BME280;7004;48.206;16.402;2023-04-27T12:02:37;100029.41;;;19.87;26.64
13869;BME280;7004;48.206;16.402;2023-04-27T12:05:04;100029.31;;;18.94;26.08
13869;BME280;7004;48.206;16.402;2023-04-27T12:07:32;100028.91;;;18.89;26.39
13869;BME280;7004;48.206;16.402;2023-04-27T12:09:59;100022.72;;;19.36;27.40
13869;BME280;7004;48.206;16.402;2023-04-27T12:12:25;100023.59;;;19.64;27.31
13869;BME280;7004;48.206;16.402;2023-04-27T12:14:52;100029.63;;;17.21;29.02
13869;BME280;7004;48.206;16.402;2023-04-27T12:17:18;100020.88;;;18.99;30.94
13869;BME280;7004;48.206;16.402;2023-04-27T12:19:45;100017.19;;;20.02;30.41
13869;BME280;7004;48.206;16.402;2023-04-27T12:22:11;100011.84;;;18.81;27.98
13869;BME280;7004;48.206;16.402;2023-04-27T12:24:37;100014.56;;;19.65;29.01
13869;BME280;7004;48.206;16.402;2023-04-27T12:27:04;100011.72;;;19.39;27.76
13869;BME280;7004;48.206;16.402;2023-04-27T12:29:30;100004.34;;;20.06;28.43
13869;BME280;7004;48.206;16.402;2023-04-27T12:31:58;99994.94;;;19.92;29.31
13869;BME280;7004;48.206;16.402;2023-04-27T12:34:25;100010.66;;;19.50;27.56
13869;BME280;7004;48.206;16.402;2023-04-27T12:36:52;100003.16;;;19.26;27.46
13869;BME280;7004;48.206;16.402;2023-04-27T12:39:20;100003.41;;;18.66;28.47
13869;BME280;7004;48.206;16.402;2023-04-27T12:41:48;100009.03;;;18.33;31.44
13869;BME280;7004;48.206;16.402;2023-04-27T12:44:16;99993.78;;;19.02;29.28
13869;BME280;7004;48.206;16.402;2023-04-27T12:46:43;99995.75;;;19.37;28.56
13869;BME280;7004;48.206;16.402;2023-04-27T12:49:10;99989.34;;;19.85;28.97
13869;BME280;7004;48.206;16.402;2023-04-27T12:51:37;99992.28;;;19.27;26.49
13869;BME280;7004;48.206;16.402;2023-04-27T12:54:04;99993.44;;;20.25;27.34
13869;BME280;7004;48.206;16.402;2023-04-27T12:56:32;99976.84;;;20.58;27.18
13869;BME280;7004;48.206;16.402;2023-04-27T12:58:58;99985.84;;;19.10;27.67
13869;BME280;7004;48.206;16.402;2023-04-27T13:01:25;99986.16;;;18.97;32.21
13869;BME280;7004;48.206;16.402;2023-04-27T13:03:59;99981.84;;;18.48;29.62
13869;BME280;7004;48.206;16.402;2023-04-27T13:06:26;99978.59;;;18.73;29.50
13869;BME280;7004;48.206;16.402;2023-04-27T13:08:54;99982.34;;;19.00;29.74